UPS224 EDDK-VRMM
Flight info
| Callsign | UPS224 |
|---|---|
| Flight time | N/A |
| Altitude | 29000 |
| Route | KUMIK2Q KUMIK L603 TESGA DCT ESATI DCT BARSU DCT DEXIT DCT ADLET DCT PESAT DCT OGVUN DCT TEGRI/N0473F310 DCT TEVRO DCT KOMAN DCT WRN DCT ARTAT UP975 ERMUP DCT IBURA DCT ENFOR DCT VEVEN DCT ERTEK DCT ROTKU DCT OTKEP/N0482F330 UM688 RATVO M688 KEDIM DCT SISIN M688 SIDAD P975 SESRU M677 OBNET DCT IVOXI DCT TARDI N629 GIDAN P570 GOLNI/N0487F350 P570 KITAL L894 ELBET ELBET1A |
| Aircraft | B763/H-SDE3FGHIM3RWXY/LB1 |
Departure
| Time | 2026-02-21 00:36 |
|---|---|
| Airport | Cologne Bonn Airport (EDDK) |
Arrival
| Time | N/A |
|---|---|
| Airport | Velana International Airport (VRMM) |
| Time | Latitude | Longitude | Altitude | Speed | Heading |
|---|---|---|---|---|---|
| 2026-02-21 00:20 | 50.87204 | 7.13334 | 246 ft | 0 kts | 227° |
| 2026-02-21 00:28 | 50.87205 | 7.13335 | 246 ft | 1 kts | 227° |
| 2026-02-21 00:28 | 50.87215 | 7.13352 | 246 ft | 2 kts | 227° |
| 2026-02-21 00:28 | 50.87225 | 7.13370 | 246 ft | 2 kts | 227° |
| 2026-02-21 00:28 | 50.87235 | 7.13387 | 246 ft | 2 kts | 227° |
| 2026-02-21 00:29 | 50.87245 | 7.13404 | 246 ft | 2 kts | 233° |
| 2026-02-21 00:29 | 50.87250 | 7.13425 | 246 ft | 2 kts | 266° |
| 2026-02-21 00:29 | 50.87249 | 7.13448 | 246 ft | 2 kts | 293° |
| 2026-02-21 00:29 | 50.87242 | 7.13465 | 246 ft | 0 kts | 317° |
| 2026-02-21 00:30 | 50.87239 | 7.13469 | 246 ft | 0 kts | 318° |
| 2026-02-21 00:32 | 50.87240 | 7.13469 | 246 ft | 0 kts | 318° |
| 2026-02-21 00:32 | 50.87253 | 7.13448 | 246 ft | 6 kts | 315° |
| 2026-02-21 00:32 | 50.87295 | 7.13387 | 246 ft | 9 kts | 318° |
| 2026-02-21 00:32 | 50.87352 | 7.13304 | 246 ft | 12 kts | 316° |
| 2026-02-21 00:33 | 50.87421 | 7.13203 | 246 ft | 15 kts | 317° |
| 2026-02-21 00:33 | 50.87506 | 7.13079 | 246 ft | 17 kts | 317° |
| 2026-02-21 00:33 | 50.87599 | 7.12943 | 248 ft | 18 kts | 317° |
| 2026-02-21 00:33 | 50.87691 | 7.12809 | 249 ft | 16 kts | 317° |
| 2026-02-21 00:34 | 50.87775 | 7.12688 | 249 ft | 16 kts | 317° |
| 2026-02-21 00:34 | 50.87874 | 7.12610 | 248 ft | 16 kts | 359° |
| 2026-02-21 00:34 | 50.87974 | 7.12697 | 246 ft | 16 kts | 53° |
| 2026-02-21 00:34 | 50.88007 | 7.12861 | 245 ft | 15 kts | 88° |
| 2026-02-21 00:35 | 50.87976 | 7.13011 | 243 ft | 13 kts | 136° |
| 2026-02-21 00:35 | 50.87867 | 7.13167 | 245 ft | 41 kts | 137° |
| 2026-02-21 00:35 | 50.87523 | 7.13660 | 246 ft | 92 kts | 137° |
| 2026-02-21 00:35 | 50.86934 | 7.14521 | 264 ft | 136 kts | 137° |
| 2026-02-21 00:36 | 50.86132 | 7.15682 | 335 ft | 168 kts | 139° |
| 2026-02-21 00:36 | 50.85225 | 7.16952 | 624 ft | 182 kts | 141° |
| 2026-02-21 00:36 | 50.84262 | 7.18303 | 1070 ft | 195 kts | 143° |
| 2026-02-21 00:36 | 50.83206 | 7.19783 | 1489 ft | 211 kts | 144° |
| 2026-02-21 00:37 | 50.82123 | 7.21312 | 2055 ft | 210 kts | 142° |
| 2026-02-21 00:37 | 50.81239 | 7.23275 | 2301 ft | 234 kts | 115° |
| 2026-02-21 00:37 | 50.80951 | 7.25908 | 2544 ft | 254 kts | 93° |
| 2026-02-21 00:37 | 50.80864 | 7.28815 | 2669 ft | 276 kts | 97° |
| 2026-02-21 00:38 | 50.80677 | 7.31877 | 3127 ft | 284 kts | 99° |
| 2026-02-21 00:38 | 50.80452 | 7.35007 | 3630 ft | 292 kts | 99° |
| 2026-02-21 00:38 | 50.80192 | 7.38258 | 4112 ft | 300 kts | 99° |
| 2026-02-21 00:38 | 50.79921 | 7.41512 | 4734 ft | 303 kts | 99° |
| 2026-02-21 00:39 | 50.79638 | 7.44800 | 5323 ft | 307 kts | 98° |
| 2026-02-21 00:39 | 50.79345 | 7.48177 | 5927 ft | 311 kts | 97° |
| 2026-02-21 00:39 | 50.79049 | 7.51542 | 6470 ft | 317 kts | 97° |
| 2026-02-21 00:39 | 50.78746 | 7.54971 | 7192 ft | 316 kts | 97° |
| 2026-02-21 00:40 | 50.78467 | 7.58436 | 7756 ft | 321 kts | 89° |
| 2026-02-21 00:40 | 50.78695 | 7.61935 | 8391 ft | 319 kts | 77° |
| 2026-02-21 00:40 | 50.79063 | 7.65376 | 9039 ft | 321 kts | 79° |
| 2026-02-21 00:40 | 50.79436 | 7.68865 | 9615 ft | 324 kts | 78° |
| 2026-02-21 00:41 | 50.79817 | 7.72352 | 10245 ft | 325 kts | 78° |
| 2026-02-21 00:41 | 50.80215 | 7.75950 | 10574 ft | 339 kts | 78° |
| 2026-02-21 00:41 | 50.80632 | 7.79705 | 10803 ft | 355 kts | 78° |
| 2026-02-21 00:41 | 50.81062 | 7.83593 | 11086 ft | 371 kts | 78° |
| 2026-02-21 00:42 | 50.81519 | 7.87741 | 11303 ft | 389 kts | 79° |
| 2026-02-21 00:42 | 50.81993 | 7.92024 | 11602 ft | 405 kts | 79° |
| 2026-02-21 00:42 | 50.82478 | 7.96458 | 12004 ft | 417 kts | 79° |
| 2026-02-21 00:42 | 50.82939 | 8.00994 | 12701 ft | 421 kts | 84° |
| 2026-02-21 00:43 | 50.82881 | 8.05649 | 13363 ft | 424 kts | 101° |
| 2026-02-21 00:43 | 50.82095 | 8.10088 | 14088 ft | 422 kts | 115° |
| 2026-02-21 00:43 | 50.80707 | 8.14101 | 14665 ft | 423 kts | 127° |
| 2026-02-21 00:43 | 50.79067 | 8.18052 | 15253 ft | 429 kts | 125° |
| 2026-02-21 00:44 | 50.77433 | 8.22001 | 15873 ft | 433 kts | 126° |
| 2026-02-21 00:44 | 50.75778 | 8.25948 | 16387 ft | 440 kts | 126° |
| 2026-02-21 00:44 | 50.74077 | 8.29987 | 17137 ft | 440 kts | 126° |
| 2026-02-21 00:44 | 50.72374 | 8.34026 | 17596 ft | 447 kts | 127° |
| 2026-02-21 00:45 | 50.70498 | 8.37853 | 18271 ft | 444 kts | 136° |
| 2026-02-21 00:45 | 50.68247 | 8.41153 | 18747 ft | 445 kts | 148° |
| 2026-02-21 00:45 | 50.65678 | 8.43778 | 19488 ft | 440 kts | 155° |
| 2026-02-21 00:45 | 50.62991 | 8.46150 | 20123 ft | 442 kts | 155° |
| 2026-02-21 00:46 | 50.60288 | 8.48501 | 20519 ft | 451 kts | 156° |
| 2026-02-21 00:46 | 50.57552 | 8.50847 | 21162 ft | 453 kts | 156° |
| 2026-02-21 00:46 | 50.54768 | 8.53211 | 21764 ft | 456 kts | 156° |
| 2026-02-21 00:46 | 50.51955 | 8.55590 | 22247 ft | 462 kts | 156° |
| 2026-02-21 00:47 | 50.49126 | 8.57974 | 22932 ft | 463 kts | 156° |
| 2026-02-21 00:47 | 50.46315 | 8.60370 | 23454 ft | 468 kts | 153° |
| 2026-02-21 00:47 | 50.43625 | 8.63313 | 23863 ft | 478 kts | 142° |
| 2026-02-21 00:47 | 50.41185 | 8.66889 | 24354 ft | 484 kts | 139° |
| 2026-02-21 00:48 | 50.38754 | 8.70548 | 24809 ft | 487 kts | 140° |
| 2026-02-21 00:48 | 50.36309 | 8.74229 | 25338 ft | 490 kts | 139° |
| 2026-02-21 00:48 | 50.33848 | 8.77921 | 25683 ft | 496 kts | 139° |
| 2026-02-21 00:48 | 50.31392 | 8.81613 | 26386 ft | 494 kts | 140° |
| 2026-02-21 00:49 | 50.28889 | 8.85361 | 26682 ft | 502 kts | 139° |
| 2026-02-21 00:49 | 50.26352 | 8.89159 | 27046 ft | 506 kts | 139° |
| 2026-02-21 00:49 | 50.23837 | 8.92929 | 27639 ft | 506 kts | 139° |
| 2026-02-21 00:49 | 50.21270 | 8.96758 | 27897 ft | 512 kts | 140° |
| 2026-02-21 00:50 | 50.18703 | 9.00581 | 28451 ft | 512 kts | 139° |
| 2026-02-21 00:50 | 50.16134 | 9.04402 | 28740 ft | 517 kts | 138° |
| 2026-02-21 00:50 | 50.13546 | 9.08249 | 29181 ft | 518 kts | 139° |
| 2026-02-21 00:50 | 50.10956 | 9.12247 | 29107 ft | 526 kts | 133° |
| 2026-02-21 00:51 | 50.06895 | 9.21706 | 29138 ft | 531 kts | 116° |
| 2026-02-21 00:51 | 50.04711 | 9.32531 | 29161 ft | 528 kts | 99° |
| 2026-02-21 00:52 | 50.03473 | 9.43756 | 29144 ft | 527 kts | 100° |
| 2026-02-21 00:52 | 50.02202 | 9.54918 | 29123 ft | 529 kts | 100° |
| 2026-02-21 00:53 | 50.00905 | 9.66096 | 29203 ft | 524 kts | 101° |
| 2026-02-21 00:53 | 50.00251 | 9.71709 | 29612 ft | 524 kts | 102° |
| 2026-02-21 00:53 | 49.99610 | 9.77188 | 30492 ft | 518 kts | 101° |
| 2026-02-21 00:54 | 49.98961 | 9.82674 | 31006 ft | 518 kts | 102° |
| 2026-02-21 00:54 | 49.98308 | 9.88173 | 31176 ft | 525 kts | 102° |
| 2026-02-21 00:54 | 49.97648 | 9.93746 | 31145 ft | 514 kts | 102° |
| 2026-02-21 00:55 | 49.96376 | 10.04382 | 31125 ft | 494 kts | 101° |
| 2026-02-21 00:55 | 49.95089 | 10.15030 | 31116 ft | 514 kts | 102° |
| 2026-02-21 00:55 | 49.94424 | 10.20473 | 31542 ft | 515 kts | 102° |
| 2026-02-21 00:56 | 49.93771 | 10.25860 | 32198 ft | 511 kts | 102° |
| 2026-02-21 00:56 | 49.93104 | 10.31294 | 32538 ft | 514 kts | 102° |
| 2026-02-21 00:56 | 49.92308 | 10.36682 | 33068 ft | 510 kts | 109° |
| 2026-02-21 00:56 | 49.91060 | 10.41745 | 33437 ft | 507 kts | 117° |
| 2026-02-21 00:57 | 49.89511 | 10.46673 | 33846 ft | 506 kts | 118° |
| 2026-02-21 00:57 | 49.87964 | 10.51529 | 34248 ft | 505 kts | 118° |
| 2026-02-21 00:57 | 49.86398 | 10.56374 | 34557 ft | 505 kts | 118° |
| 2026-02-21 00:57 | 49.84810 | 10.61245 | 34886 ft | 503 kts | 118° |
| 2026-02-21 00:58 | 49.83232 | 10.66060 | 35177 ft | 501 kts | 120° |
| 2026-02-21 00:58 | 49.80092 | 10.75578 | 35194 ft | 496 kts | 120° |
| 2026-02-21 00:59 | 49.76927 | 10.85109 | 35178 ft | 498 kts | 120° |
| 2026-02-21 00:59 | 49.73764 | 10.94596 | 35197 ft | 496 kts | 120° |
| 2026-02-21 01:00 | 49.70622 | 11.03985 | 35208 ft | 495 kts | 120° |
| 2026-02-21 01:00 | 49.67462 | 11.13387 | 35217 ft | 496 kts | 120° |
| 2026-02-21 01:01 | 49.64271 | 11.22847 | 35262 ft | 494 kts | 120° |
| 2026-02-21 01:01 | 49.61100 | 11.32215 | 35203 ft | 493 kts | 120° |
| 2026-02-21 01:02 | 49.57947 | 11.41495 | 35185 ft | 492 kts | 120° |
| 2026-02-21 01:02 | 49.54755 | 11.50835 | 35181 ft | 492 kts | 120° |
| 2026-02-21 01:03 | 49.51597 | 11.60075 | 35184 ft | 490 kts | 120° |
| 2026-02-21 01:03 | 49.48423 | 11.69320 | 35181 ft | 490 kts | 121° |
| 2026-02-21 01:04 | 49.45232 | 11.78573 | 35207 ft | 489 kts | 121° |
| 2026-02-21 01:04 | 49.42039 | 11.87802 | 35193 ft | 490 kts | 120° |
| 2026-02-21 01:05 | 49.38855 | 11.96977 | 35232 ft | 491 kts | 121° |
| 2026-02-21 01:05 | 49.35627 | 12.06235 | 35140 ft | 494 kts | 120° |
| 2026-02-21 01:05 | 49.34019 | 12.10838 | 35266 ft | 492 kts | 120° |
| 2026-02-21 01:06 | 49.32401 | 12.15463 | 35099 ft | 494 kts | 121° |
| 2026-02-21 01:06 | 49.30785 | 12.20065 | 35287 ft | 490 kts | 120° |
| 2026-02-21 01:06 | 49.29160 | 12.24697 | 35168 ft | 495 kts | 120° |
| 2026-02-21 01:07 | 49.25914 | 12.33908 | 35218 ft | 491 kts | 120° |
| 2026-02-21 01:07 | 49.22692 | 12.43023 | 35221 ft | 487 kts | 120° |
| 2026-02-21 01:08 | 49.19480 | 12.52076 | 35241 ft | 488 kts | 120° |
| 2026-02-21 01:08 | 49.16240 | 12.61177 | 35211 ft | 488 kts | 120° |
| 2026-02-21 01:09 | 49.13000 | 12.70246 | 35216 ft | 487 kts | 121° |
| 2026-02-21 01:09 | 49.09770 | 12.79256 | 35226 ft | 484 kts | 120° |
| 2026-02-21 01:10 | 49.06535 | 12.88250 | 35255 ft | 484 kts | 120° |
| 2026-02-21 01:10 | 49.03290 | 12.97237 | 35274 ft | 486 kts | 120° |
| 2026-02-21 01:11 | 49.00031 | 13.06237 | 35239 ft | 485 kts | 121° |
| 2026-02-21 01:11 | 48.96771 | 13.15208 | 35218 ft | 487 kts | 120° |
| 2026-02-21 01:12 | 48.93472 | 13.24249 | 35204 ft | 489 kts | 120° |
| 2026-02-21 01:12 | 48.90191 | 13.33213 | 35217 ft | 486 kts | 120° |
| 2026-02-21 01:13 | 48.86902 | 13.42169 | 35210 ft | 484 kts | 120° |
| 2026-02-21 01:13 | 48.83633 | 13.51036 | 35216 ft | 486 kts | 120° |
| 2026-02-21 01:14 | 48.80329 | 13.59976 | 35210 ft | 487 kts | 120° |
| 2026-02-21 01:14 | 48.77018 | 13.68895 | 35215 ft | 487 kts | 120° |
| 2026-02-21 01:15 | 48.73929 | 13.78035 | 35205 ft | 488 kts | 117° |
| 2026-02-21 01:15 | 48.70913 | 13.87236 | 35201 ft | 488 kts | 117° |
| 2026-02-21 01:16 | 48.67915 | 13.96337 | 35185 ft | 488 kts | 117° |
| 2026-02-21 01:16 | 48.64880 | 14.05518 | 35191 ft | 486 kts | 117° |
| 2026-02-21 01:17 | 48.61868 | 14.14586 | 35212 ft | 486 kts | 117° |
| 2026-02-21 01:17 | 48.58826 | 14.23718 | 35215 ft | 488 kts | 117° |
| 2026-02-21 01:18 | 48.55868 | 14.32854 | 35233 ft | 487 kts | 113° |
| 2026-02-21 01:18 | 48.53148 | 14.42186 | 35223 ft | 488 kts | 114° |
| 2026-02-21 01:19 | 48.50396 | 14.51537 | 35233 ft | 488 kts | 114° |
| 2026-02-21 01:19 | 48.47649 | 14.60824 | 35234 ft | 487 kts | 113° |
| 2026-02-21 01:20 | 48.44903 | 14.70071 | 35223 ft | 486 kts | 114° |
| 2026-02-21 01:20 | 48.42127 | 14.79383 | 35219 ft | 487 kts | 114° |
| 2026-02-21 01:21 | 48.39352 | 14.88657 | 35226 ft | 488 kts | 114° |
| 2026-02-21 01:21 | 48.36567 | 14.97928 | 35225 ft | 488 kts | 114° |
| 2026-02-21 01:22 | 48.33773 | 15.07194 | 35224 ft | 487 kts | 114° |
| 2026-02-21 01:22 | 48.30983 | 15.16412 | 35230 ft | 486 kts | 114° |
| 2026-02-21 01:23 | 48.28186 | 15.25622 | 35229 ft | 487 kts | 114° |
| 2026-02-21 01:23 | 48.25371 | 15.34848 | 35234 ft | 485 kts | 113° |
| 2026-02-21 01:24 | 48.22574 | 15.43993 | 35223 ft | 484 kts | 113° |
| 2026-02-21 01:24 | 48.19759 | 15.53156 | 35214 ft | 486 kts | 113° |
| 2026-02-21 01:25 | 48.16925 | 15.62344 | 35225 ft | 485 kts | 113° |
| 2026-02-21 01:25 | 48.14102 | 15.71469 | 35230 ft | 484 kts | 114° |
| 2026-02-21 01:26 | 48.11265 | 15.80603 | 35235 ft | 485 kts | 114° |
| 2026-02-21 01:26 | 48.08430 | 15.89698 | 35223 ft | 484 kts | 114° |
| 2026-02-21 01:27 | 48.05598 | 15.98751 | 35207 ft | 481 kts | 114° |
| 2026-02-21 01:27 | 48.02770 | 16.07760 | 35224 ft | 483 kts | 114° |
| 2026-02-21 01:28 | 47.99901 | 16.16857 | 35251 ft | 484 kts | 113° |
| 2026-02-21 01:28 | 47.97062 | 16.25837 | 35288 ft | 482 kts | 113° |
| 2026-02-21 01:29 | 47.94181 | 16.34916 | 35256 ft | 483 kts | 113° |
| 2026-02-21 01:29 | 47.91316 | 16.43914 | 35278 ft | 483 kts | 113° |
| 2026-02-21 01:30 | 47.88422 | 16.52959 | 35288 ft | 483 kts | 112° |
| 2026-02-21 01:30 | 47.85538 | 16.61955 | 35281 ft | 483 kts | 113° |
| 2026-02-21 01:31 | 47.82650 | 16.70927 | 35257 ft | 482 kts | 114° |
| 2026-02-21 01:31 | 47.79762 | 16.79861 | 35274 ft | 482 kts | 113° |
| 2026-02-21 01:32 | 47.76848 | 16.88851 | 35281 ft | 482 kts | 113° |
| 2026-02-21 01:32 | 47.73948 | 16.97764 | 35282 ft | 482 kts | 113° |
| 2026-02-21 01:33 | 47.70911 | 17.06570 | 35288 ft | 482 kts | 118° |
| 2026-02-21 01:33 | 47.67486 | 17.15095 | 35283 ft | 482 kts | 118° |
| 2026-02-21 01:34 | 47.64041 | 17.23594 | 35283 ft | 481 kts | 118° |
| 2026-02-21 01:34 | 47.58855 | 17.36297 | 35292 ft | 480 kts | 118° |
| 2026-02-21 01:35 | 47.55414 | 17.44685 | 35280 ft | 479 kts | 117° |
| 2026-02-21 01:35 | 47.51947 | 17.53110 | 35286 ft | 480 kts | 118° |
| 2026-02-21 01:36 | 47.48484 | 17.61495 | 35287 ft | 480 kts | 117° |
| 2026-02-21 01:36 | 47.44991 | 17.69924 | 35283 ft | 477 kts | 118° |
| 2026-02-21 01:37 | 47.41550 | 17.78208 | 35284 ft | 478 kts | 118° |
| 2026-02-21 01:37 | 47.38134 | 17.86617 | 35263 ft | 476 kts | 112° |
| 2026-02-21 01:38 | 47.35297 | 17.95372 | 35228 ft | 476 kts | 112° |
| 2026-02-21 01:38 | 47.32460 | 18.04075 | 35237 ft | 474 kts | 111° |
| 2026-02-21 01:39 | 47.29607 | 18.12801 | 35223 ft | 472 kts | 111° |
| 2026-02-21 01:39 | 47.26755 | 18.21485 | 35230 ft | 471 kts | 111° |
| 2026-02-21 01:40 | 47.23911 | 18.30122 | 35221 ft | 472 kts | 111° |
| 2026-02-21 01:40 | 47.21049 | 18.38780 | 35231 ft | 472 kts | 111° |
| 2026-02-21 01:41 | 47.18186 | 18.47415 | 35234 ft | 472 kts | 111° |
| 2026-02-21 01:41 | 47.15300 | 18.56084 | 35241 ft | 471 kts | 111° |
| 2026-02-21 01:42 | 47.12436 | 18.64663 | 35245 ft | 470 kts | 111° |
| 2026-02-21 01:42 | 47.09556 | 18.73261 | 35249 ft | 470 kts | 112° |
| 2026-02-21 01:43 | 47.06676 | 18.81832 | 35239 ft | 472 kts | 112° |
| 2026-02-21 01:43 | 47.03777 | 18.90425 | 35274 ft | 469 kts | 112° |
| 2026-02-21 01:44 | 47.00887 | 18.98974 | 35253 ft | 470 kts | 112° |
| 2026-02-21 01:44 | 46.97981 | 19.07531 | 35228 ft | 470 kts | 112° |
| 2026-02-21 01:45 | 46.95092 | 19.16018 | 35237 ft | 469 kts | 112° |
| 2026-02-21 01:45 | 46.92167 | 19.24580 | 35253 ft | 470 kts | 112° |
| 2026-02-21 01:46 | 46.89265 | 19.33042 | 35263 ft | 468 kts | 112° |
| 2026-02-21 01:46 | 46.86354 | 19.41512 | 35237 ft | 469 kts | 112° |
| 2026-02-21 01:47 | 46.83423 | 19.50006 | 35216 ft | 466 kts | 112° |
| 2026-02-21 01:47 | 46.80512 | 19.58416 | 35236 ft | 466 kts | 112° |
| 2026-02-21 01:48 | 46.77586 | 19.66844 | 35233 ft | 468 kts | 113° |
| 2026-02-21 01:48 | 46.74668 | 19.75219 | 35222 ft | 466 kts | 113° |
| 2026-02-21 01:49 | 46.71725 | 19.83647 | 35229 ft | 468 kts | 113° |
| 2026-02-21 01:49 | 46.68795 | 19.92003 | 35204 ft | 464 kts | 113° |
| 2026-02-21 01:50 | 46.65866 | 20.00331 | 35206 ft | 465 kts | 113° |
| 2026-02-21 01:50 | 46.62923 | 20.08677 | 35188 ft | 465 kts | 113° |
| 2026-02-21 01:51 | 46.59976 | 20.17003 | 35214 ft | 463 kts | 113° |
| 2026-02-21 01:51 | 46.57028 | 20.25311 | 35197 ft | 467 kts | 113° |
| 2026-02-21 01:52 | 46.54060 | 20.33644 | 35200 ft | 464 kts | 113° |
| 2026-02-21 01:52 | 46.51109 | 20.41904 | 35243 ft | 464 kts | 113° |
| 2026-02-21 01:53 | 46.48116 | 20.50258 | 35246 ft | 464 kts | 113° |
| 2026-02-21 01:53 | 46.45153 | 20.58498 | 35239 ft | 463 kts | 113° |
| 2026-02-21 01:54 | 46.42178 | 20.66750 | 35206 ft | 464 kts | 114° |
| 2026-02-21 01:54 | 46.39180 | 20.75041 | 35273 ft | 461 kts | 114° |
| 2026-02-21 01:55 | 46.36209 | 20.83232 | 35181 ft | 465 kts | 115° |
| 2026-02-21 01:55 | 46.33217 | 20.91455 | 35239 ft | 464 kts | 114° |
| 2026-02-21 01:56 | 46.30203 | 20.99711 | 35253 ft | 465 kts | 115° |
| 2026-02-21 01:56 | 46.28697 | 21.03831 | 35108 ft | 463 kts | 115° |
| 2026-02-21 01:56 | 46.27195 | 21.07926 | 35261 ft | 460 kts | 115° |
| 2026-02-21 01:57 | 46.24038 | 21.16001 | 35185 ft | 465 kts | 117° |
| 2026-02-21 01:57 | 46.20817 | 21.23969 | 35224 ft | 461 kts | 117° |
| 2026-02-21 01:58 | 46.17589 | 21.31940 | 35204 ft | 463 kts | 118° |
| 2026-02-21 01:58 | 46.14322 | 21.39977 | 35196 ft | 464 kts | 118° |
| 2026-02-21 01:59 | 46.11078 | 21.47942 | 35205 ft | 463 kts | 118° |
| 2026-02-21 01:59 | 46.07818 | 21.55924 | 35197 ft | 464 kts | 118° |
| 2026-02-21 02:00 | 46.04553 | 21.63885 | 35224 ft | 465 kts | 118° |
| 2026-02-21 02:00 | 46.01276 | 21.71863 | 35167 ft | 462 kts | 120° |
| 2026-02-21 02:01 | 45.98017 | 21.79774 | 35171 ft | 467 kts | 120° |
| 2026-02-21 02:01 | 45.94707 | 21.87780 | 35226 ft | 466 kts | 120° |
| 2026-02-21 02:02 | 45.91390 | 21.95784 | 35170 ft | 469 kts | 120° |
| 2026-02-21 02:02 | 45.88059 | 22.03797 | 35176 ft | 468 kts | 121° |
| 2026-02-21 02:03 | 45.84730 | 22.11781 | 35209 ft | 466 kts | 120° |
| 2026-02-21 02:03 | 45.81421 | 22.19698 | 35244 ft | 464 kts | 121° |
| 2026-02-21 02:04 | 45.78117 | 22.27575 | 35178 ft | 463 kts | 121° |
| 2026-02-21 02:04 | 45.74807 | 22.35450 | 35176 ft | 465 kts | 121° |
| 2026-02-21 02:05 | 45.71481 | 22.43348 | 35092 ft | 463 kts | 122° |
| 2026-02-21 02:05 | 45.68141 | 22.51240 | 35112 ft | 464 kts | 121° |
| 2026-02-21 02:06 | 45.64808 | 22.59100 | 35144 ft | 464 kts | 122° |
| 2026-02-21 02:06 | 45.61455 | 22.66993 | 35132 ft | 465 kts | 123° |
| 2026-02-21 02:07 | 45.58081 | 22.74898 | 35139 ft | 469 kts | 123° |
| 2026-02-21 02:07 | 45.54674 | 22.82863 | 35152 ft | 472 kts | 123° |
| 2026-02-21 02:08 | 45.51279 | 22.90787 | 35186 ft | 468 kts | 123° |
| 2026-02-21 02:08 | 45.47887 | 22.98672 | 35170 ft | 473 kts | 123° |
| 2026-02-21 02:09 | 45.44450 | 23.06642 | 35241 ft | 472 kts | 123° |
| 2026-02-21 02:09 | 45.41010 | 23.14596 | 35119 ft | 473 kts | 123° |
| 2026-02-21 02:10 | 45.37561 | 23.22547 | 35154 ft | 472 kts | 123° |
| 2026-02-21 02:10 | 45.34112 | 23.30480 | 35092 ft | 474 kts | 124° |
| 2026-02-21 02:11 | 45.30614 | 23.38499 | 35106 ft | 478 kts | 123° |
| 2026-02-21 02:11 | 45.27133 | 23.46460 | 35064 ft | 473 kts | 123° |
| 2026-02-21 02:12 | 45.23659 | 23.54379 | 35122 ft | 473 kts | 124° |
| 2026-02-21 02:12 | 45.20164 | 23.62326 | 35074 ft | 475 kts | 124° |
| 2026-02-21 02:13 | 45.16655 | 23.70281 | 35067 ft | 475 kts | 124° |
| 2026-02-21 02:13 | 45.13137 | 23.78236 | 35098 ft | 479 kts | 124° |
| 2026-02-21 02:14 | 45.09610 | 23.86184 | 35164 ft | 480 kts | 125° |
| 2026-02-21 02:14 | 45.06082 | 23.94118 | 35196 ft | 477 kts | 125° |
| 2026-02-21 02:15 | 45.02540 | 24.02061 | 35174 ft | 479 kts | 125° |
| 2026-02-21 02:15 | 44.98974 | 24.10030 | 35133 ft | 480 kts | 124° |
| 2026-02-21 02:16 | 44.95429 | 24.17939 | 35307 ft | 477 kts | 125° |
| 2026-02-21 02:16 | 44.93652 | 24.21888 | 35174 ft | 482 kts | 124° |
| 2026-02-21 02:16 | 44.91865 | 24.25859 | 35303 ft | 479 kts | 125° |
| 2026-02-21 02:17 | 44.90071 | 24.29841 | 35125 ft | 481 kts | 125° |
| 2026-02-21 02:17 | 44.88302 | 24.33761 | 35251 ft | 477 kts | 125° |
| 2026-02-21 02:17 | 44.84734 | 24.41649 | 35209 ft | 479 kts | 125° |
| 2026-02-21 02:18 | 44.81139 | 24.49577 | 35224 ft | 478 kts | 126° |
| 2026-02-21 02:18 | 44.77566 | 24.57432 | 35225 ft | 479 kts | 126° |
| 2026-02-21 02:19 | 44.73989 | 24.65277 | 35274 ft | 479 kts | 126° |
| 2026-02-21 02:19 | 44.70385 | 24.73156 | 35300 ft | 478 kts | 126° |
| 2026-02-21 02:20 | 44.68584 | 24.77088 | 35188 ft | 479 kts | 126° |
| 2026-02-21 02:20 | 44.66786 | 24.81006 | 35223 ft | 477 kts | 126° |
| 2026-02-21 02:20 | 44.63199 | 24.88808 | 35284 ft | 478 kts | 127° |
| 2026-02-21 02:21 | 44.59572 | 24.96675 | 35277 ft | 478 kts | 127° |
| 2026-02-21 02:21 | 44.55976 | 25.04454 | 35254 ft | 478 kts | 127° |
| 2026-02-21 02:22 | 44.52351 | 25.12274 | 35247 ft | 481 kts | 127° |
| 2026-02-21 02:22 | 44.48727 | 25.20069 | 35210 ft | 478 kts | 127° |
| 2026-02-21 02:23 | 44.45074 | 25.27905 | 35246 ft | 479 kts | 127° |
| 2026-02-21 02:23 | 44.41459 | 25.35642 | 35237 ft | 478 kts | 127° |
| 2026-02-21 02:24 | 44.37827 | 25.43395 | 35269 ft | 477 kts | 127° |
| 2026-02-21 02:24 | 44.34173 | 25.51126 | 35195 ft | 478 kts | 128° |
| 2026-02-21 02:25 | 44.30351 | 25.58720 | 35243 ft | 478 kts | 129° |
| 2026-02-21 02:25 | 44.26544 | 25.66269 | 35247 ft | 477 kts | 129° |
| 2026-02-21 02:26 | 44.22734 | 25.73808 | 35237 ft | 478 kts | 129° |
| 2026-02-21 02:27 | 44.17005 | 25.85108 | 35252 ft | 477 kts | 129° |
| 2026-02-21 02:27 | 44.13172 | 25.92645 | 35202 ft | 478 kts | 130° |
| 2026-02-21 02:28 | 44.09343 | 26.00155 | 35229 ft | 477 kts | 130° |
| 2026-02-21 02:28 | 44.05478 | 26.07713 | 35174 ft | 478 kts | 129° |
| 2026-02-21 02:29 | 44.01675 | 26.15136 | 35264 ft | 475 kts | 130° |
| 2026-02-21 02:29 | 43.97834 | 26.22679 | 35193 ft | 477 kts | 127° |
| 2026-02-21 02:30 | 43.94312 | 26.30401 | 35244 ft | 478 kts | 127° |
| 2026-02-21 02:30 | 43.90743 | 26.38185 | 35208 ft | 477 kts | 127° |
| 2026-02-21 02:31 | 43.87185 | 26.45916 | 35207 ft | 477 kts | 127° |
| 2026-02-21 02:31 | 43.83609 | 26.53661 | 35189 ft | 477 kts | 127° |
| 2026-02-21 02:32 | 43.80038 | 26.61376 | 35181 ft | 478 kts | 127° |
| 2026-02-21 02:32 | 43.76454 | 26.69093 | 35179 ft | 478 kts | 128° |
| 2026-02-21 02:33 | 43.72867 | 26.76804 | 35200 ft | 476 kts | 128° |
| 2026-02-21 02:33 | 43.69291 | 26.84471 | 35164 ft | 475 kts | 128° |
| 2026-02-21 02:34 | 43.65720 | 26.92100 | 35181 ft | 474 kts | 128° |
| 2026-02-21 02:34 | 43.62164 | 26.99681 | 35175 ft | 473 kts | 128° |
| 2026-02-21 02:35 | 43.58585 | 27.07292 | 35155 ft | 474 kts | 129° |
| 2026-02-21 02:35 | 43.54997 | 27.14901 | 35147 ft | 474 kts | 129° |
| 2026-02-21 02:36 | 43.51398 | 27.22512 | 35130 ft | 474 kts | 128° |
| 2026-02-21 02:36 | 43.47799 | 27.30110 | 35118 ft | 472 kts | 129° |
| 2026-02-21 02:37 | 43.44215 | 27.37648 | 35156 ft | 469 kts | 129° |
| 2026-02-21 02:37 | 43.40650 | 27.45131 | 35123 ft | 474 kts | 129° |
| 2026-02-21 02:38 | 43.37046 | 27.52680 | 35159 ft | 472 kts | 130° |
| 2026-02-21 02:38 | 43.33469 | 27.60147 | 35180 ft | 469 kts | 130° |
| 2026-02-21 02:39 | 43.29863 | 27.67660 | 35140 ft | 472 kts | 131° |
| 2026-02-21 02:39 | 43.26268 | 27.75133 | 35146 ft | 467 kts | 131° |
| 2026-02-21 02:40 | 43.22704 | 27.82537 | 35192 ft | 469 kts | 130° |
| 2026-02-21 02:40 | 43.19175 | 27.90115 | 35196 ft | 468 kts | 130° |
| 2026-02-21 02:41 | 43.15677 | 27.97601 | 35150 ft | 467 kts | 130° |
| 2026-02-21 02:41 | 43.12176 | 28.05073 | 35135 ft | 466 kts | 130° |
| 2026-02-21 02:42 | 43.08676 | 28.12528 | 35117 ft | 466 kts | 130° |
| 2026-02-21 02:42 | 43.05194 | 28.19921 | 35130 ft | 465 kts | 130° |
| 2026-02-21 02:43 | 43.01677 | 28.27370 | 35131 ft | 466 kts | 130° |
| 2026-02-21 02:43 | 42.98164 | 28.34793 | 35135 ft | 467 kts | 131° |
| 2026-02-21 02:44 | 42.94647 | 28.42207 | 35124 ft | 465 kts | 131° |
| 2026-02-21 02:44 | 42.91111 | 28.49644 | 35122 ft | 463 kts | 131° |
| 2026-02-21 02:45 | 42.87584 | 28.57036 | 35131 ft | 467 kts | 131° |
| 2026-02-21 02:45 | 42.84049 | 28.64436 | 35090 ft | 464 kts | 131° |
| 2026-02-21 02:46 | 42.80537 | 28.71759 | 35130 ft | 466 kts | 131° |
| 2026-02-21 02:46 | 42.76976 | 28.79175 | 35129 ft | 467 kts | 132° |
| 2026-02-21 02:47 | 42.73425 | 28.86547 | 35093 ft | 467 kts | 131° |
| 2026-02-21 02:47 | 42.69883 | 28.93887 | 35092 ft | 465 kts | 132° |
| 2026-02-21 02:48 | 42.66315 | 29.01255 | 35107 ft | 469 kts | 132° |
| 2026-02-21 02:48 | 42.62730 | 29.08649 | 35091 ft | 466 kts | 132° |
| 2026-02-21 02:49 | 42.59181 | 29.15945 | 35092 ft | 466 kts | 132° |
| 2026-02-21 02:49 | 42.55600 | 29.23286 | 35125 ft | 468 kts | 132° |
| 2026-02-21 02:50 | 42.52015 | 29.30624 | 35096 ft | 466 kts | 132° |
| 2026-02-21 02:50 | 42.48440 | 29.37922 | 35088 ft | 465 kts | 132° |
| 2026-02-21 02:51 | 42.44850 | 29.45228 | 35136 ft | 467 kts | 132° |
| 2026-02-21 02:51 | 42.41254 | 29.52533 | 35114 ft | 467 kts | 132° |
| 2026-02-21 02:52 | 42.37647 | 29.59867 | 35085 ft | 468 kts | 130° |
| 2026-02-21 02:52 | 42.36096 | 29.63849 | 35098 ft | 479 kts | 121° |
| 2026-02-21 02:52 | 42.34956 | 29.68083 | 35136 ft | 486 kts | 117° |
| 2026-02-21 02:53 | 42.32738 | 29.76832 | 35138 ft | 486 kts | 118° |
| 2026-02-21 02:53 | 42.30544 | 29.85453 | 35095 ft | 486 kts | 118° |
| 2026-02-21 02:54 | 42.28327 | 29.94133 | 35088 ft | 487 kts | 118° |
| 2026-02-21 02:54 | 42.26129 | 30.02710 | 35079 ft | 490 kts | 118° |
| 2026-02-21 02:55 | 42.23895 | 30.11401 | 35106 ft | 491 kts | 118° |
| 2026-02-21 02:55 | 42.21650 | 30.20107 | 35099 ft | 488 kts | 118° |
| 2026-02-21 02:56 | 42.19414 | 30.28741 | 35092 ft | 489 kts | 118° |
| 2026-02-21 02:56 | 42.17172 | 30.37367 | 35096 ft | 489 kts | 118° |
| 2026-02-21 02:57 | 42.14919 | 30.46004 | 35078 ft | 491 kts | 118° |
| 2026-02-21 02:57 | 42.12653 | 30.54666 | 35061 ft | 490 kts | 118° |
| 2026-02-21 02:58 | 42.10390 | 30.63283 | 35106 ft | 490 kts | 118° |
| 2026-02-21 02:58 | 42.08118 | 30.71903 | 35092 ft | 488 kts | 118° |
| 2026-02-21 02:59 | 42.05841 | 30.80504 | 35072 ft | 491 kts | 118° |
| 2026-02-21 02:59 | 42.03537 | 30.89188 | 35091 ft | 493 kts | 118° |
| 2026-02-21 03:00 | 42.01219 | 30.97888 | 35089 ft | 492 kts | 118° |
| 2026-02-21 03:00 | 41.98558 | 31.06254 | 35103 ft | 481 kts | 129° |
| 2026-02-21 03:01 | 41.95315 | 31.14117 | 35053 ft | 482 kts | 128° |
| 2026-02-21 03:01 | 41.92108 | 31.21993 | 35127 ft | 484 kts | 128° |
| 2026-02-21 03:02 | 41.88900 | 31.29896 | 35093 ft | 482 kts | 128° |
| 2026-02-21 03:02 | 41.85695 | 31.37777 | 35089 ft | 483 kts | 127° |
| 2026-02-21 03:03 | 41.82486 | 31.45655 | 35094 ft | 484 kts | 128° |
| 2026-02-21 03:03 | 41.79257 | 31.53561 | 35117 ft | 485 kts | 127° |
| 2026-02-21 03:04 | 41.76009 | 31.61494 | 35095 ft | 486 kts | 127° |
| 2026-02-21 03:04 | 41.72769 | 31.69388 | 35129 ft | 484 kts | 128° |
| 2026-02-21 03:05 | 41.69509 | 31.77308 | 35122 ft | 485 kts | 128° |
| 2026-02-21 03:05 | 41.66261 | 31.85176 | 35104 ft | 486 kts | 128° |
| 2026-02-21 03:06 | 41.62991 | 31.93080 | 35081 ft | 486 kts | 128° |
| 2026-02-21 03:06 | 41.59724 | 32.00951 | 35080 ft | 487 kts | 128° |
| 2026-02-21 03:07 | 41.56434 | 32.08861 | 35097 ft | 487 kts | 128° |
| 2026-02-21 03:07 | 41.53155 | 32.16725 | 35079 ft | 484 kts | 128° |
| 2026-02-21 03:08 | 41.49856 | 32.24608 | 35115 ft | 488 kts | 128° |
| 2026-02-21 03:08 | 41.46525 | 32.32554 | 35115 ft | 488 kts | 128° |
| 2026-02-21 03:09 | 41.43206 | 32.40446 | 35104 ft | 489 kts | 127° |
| 2026-02-21 03:09 | 41.39903 | 32.48283 | 35113 ft | 490 kts | 128° |
| 2026-02-21 03:10 | 41.36553 | 32.56208 | 35084 ft | 489 kts | 128° |
| 2026-02-21 03:10 | 41.33223 | 32.64064 | 35095 ft | 491 kts | 128° |
| 2026-02-21 03:11 | 41.29860 | 32.71980 | 35101 ft | 491 kts | 128° |
| 2026-02-21 03:11 | 41.26534 | 32.79789 | 35125 ft | 487 kts | 128° |
| 2026-02-21 03:12 | 41.23157 | 32.87692 | 35093 ft | 490 kts | 128° |
| 2026-02-21 03:12 | 41.19813 | 32.95499 | 35092 ft | 492 kts | 128° |
| 2026-02-21 03:13 | 41.16420 | 33.03401 | 35101 ft | 492 kts | 128° |
| 2026-02-21 03:13 | 41.13042 | 33.11250 | 35075 ft | 490 kts | 128° |
| 2026-02-21 03:14 | 41.09665 | 33.19070 | 35131 ft | 491 kts | 128° |
| 2026-02-21 03:14 | 41.06265 | 33.26927 | 35060 ft | 491 kts | 128° |
| 2026-02-21 03:14 | 41.04578 | 33.30818 | 35163 ft | 493 kts | 128° |
| 2026-02-21 03:15 | 41.02871 | 33.34745 | 35114 ft | 494 kts | 128° |
| 2026-02-21 03:15 | 40.99670 | 33.42815 | 35090 ft | 497 kts | 124° |
| 2026-02-21 03:16 | 40.96596 | 33.51013 | 35099 ft | 500 kts | 124° |
| 2026-02-21 03:16 | 40.93493 | 33.59246 | 35112 ft | 501 kts | 124° |
| 2026-02-21 03:17 | 40.90388 | 33.67457 | 35124 ft | 500 kts | 125° |
| 2026-02-21 03:17 | 40.87289 | 33.75624 | 35116 ft | 499 kts | 124° |
| 2026-02-21 03:18 | 40.84165 | 33.83828 | 35132 ft | 501 kts | 124° |
| 2026-02-21 03:18 | 40.81040 | 33.92016 | 35130 ft | 502 kts | 124° |
| 2026-02-21 03:19 | 40.77903 | 34.00209 | 35123 ft | 504 kts | 124° |
| 2026-02-21 03:19 | 40.74746 | 34.08436 | 35119 ft | 502 kts | 124° |
| 2026-02-21 03:20 | 40.71591 | 34.16633 | 35127 ft | 502 kts | 124° |
| 2026-02-21 03:20 | 40.68417 | 34.24852 | 35131 ft | 506 kts | 124° |
| 2026-02-21 03:21 | 40.65228 | 34.33096 | 35137 ft | 505 kts | 124° |
| 2026-02-21 03:21 | 40.62038 | 34.41315 | 35146 ft | 502 kts | 124° |
| 2026-02-21 03:22 | 40.58876 | 34.49437 | 35154 ft | 504 kts | 124° |
| 2026-02-21 03:22 | 40.55654 | 34.57691 | 35148 ft | 506 kts | 124° |
| 2026-02-21 03:23 | 40.52437 | 34.65910 | 35134 ft | 506 kts | 125° |
| 2026-02-21 03:23 | 40.47623 | 34.78169 | 35136 ft | 505 kts | 125° |
| 2026-02-21 03:24 | 40.44374 | 34.86408 | 35128 ft | 507 kts | 124° |
| 2026-02-21 03:24 | 40.41153 | 34.94564 | 35124 ft | 505 kts | 124° |
| 2026-02-21 03:25 | 40.37922 | 35.02714 | 35137 ft | 507 kts | 124° |
| 2026-02-21 03:25 | 40.34672 | 35.10896 | 35114 ft | 506 kts | 124° |
| 2026-02-21 03:26 | 40.31430 | 35.19029 | 35146 ft | 505 kts | 124° |
| 2026-02-21 03:26 | 40.28184 | 35.27154 | 35131 ft | 508 kts | 124° |
| 2026-02-21 03:27 | 40.24923 | 35.35298 | 35148 ft | 507 kts | 124° |
| 2026-02-21 03:27 | 40.21627 | 35.43499 | 35146 ft | 508 kts | 124° |
| 2026-02-21 03:28 | 40.18357 | 35.51620 | 35170 ft | 506 kts | 124° |
| 2026-02-21 03:28 | 40.15067 | 35.59765 | 35180 ft | 507 kts | 124° |
| 2026-02-21 03:29 | 40.11753 | 35.67947 | 35183 ft | 509 kts | 125° |
| 2026-02-21 03:29 | 40.08458 | 35.76063 | 35186 ft | 505 kts | 125° |
| 2026-02-21 03:30 | 40.05178 | 35.84118 | 35163 ft | 507 kts | 124° |
| 2026-02-21 03:30 | 40.01859 | 35.92246 | 35171 ft | 508 kts | 124° |
| 2026-02-21 03:31 | 39.98540 | 36.00355 | 35178 ft | 508 kts | 124° |
| 2026-02-21 03:31 | 39.95228 | 36.08426 | 35189 ft | 508 kts | 124° |
| 2026-02-21 03:32 | 39.91895 | 36.16523 | 35202 ft | 507 kts | 124° |
| 2026-02-21 03:32 | 39.88555 | 36.24617 | 35221 ft | 509 kts | 124° |
| 2026-02-21 03:33 | 39.85691 | 36.33077 | 35236 ft | 516 kts | 117° |
| 2026-02-21 03:33 | 39.83076 | 36.41725 | 35239 ft | 517 kts | 117° |
| 2026-02-21 03:34 | 39.80441 | 36.50413 | 35231 ft | 516 kts | 117° |
| 2026-02-21 03:34 | 39.77811 | 36.59055 | 35249 ft | 517 kts | 117° |
| 2026-02-21 03:35 | 39.75151 | 36.67772 | 35263 ft | 518 kts | 117° |
| 2026-02-21 03:35 | 39.72502 | 36.76429 | 35236 ft | 516 kts | 117° |
| 2026-02-21 03:36 | 39.69844 | 36.85083 | 35238 ft | 517 kts | 117° |
| 2026-02-21 03:36 | 39.67178 | 36.93737 | 35259 ft | 518 kts | 117° |
| 2026-02-21 03:37 | 39.64508 | 37.02372 | 35203 ft | 517 kts | 117° |
| 2026-02-21 03:37 | 39.61812 | 37.11064 | 35256 ft | 517 kts | 117° |
| 2026-02-21 03:38 | 39.59143 | 37.19649 | 35281 ft | 517 kts | 117° |
| 2026-02-21 03:38 | 39.56451 | 37.28278 | 35264 ft | 516 kts | 117° |
| 2026-02-21 03:39 | 39.52393 | 37.41228 | 35278 ft | 518 kts | 117° |
| 2026-02-21 03:40 | 39.49696 | 37.49808 | 35267 ft | 519 kts | 117° |
| 2026-02-21 03:40 | 39.46977 | 37.58425 | 35280 ft | 519 kts | 116° |
| 2026-02-21 03:41 | 39.44312 | 37.67084 | 35279 ft | 519 kts | 115° |
| 2026-02-21 03:41 | 39.41792 | 37.75797 | 35273 ft | 518 kts | 115° |
| 2026-02-21 03:42 | 39.39257 | 37.84497 | 35309 ft | 520 kts | 115° |
| 2026-02-21 03:42 | 39.36706 | 37.93225 | 35299 ft | 520 kts | 115° |
| 2026-02-21 03:43 | 39.34165 | 38.01892 | 35316 ft | 518 kts | 115° |
| 2026-02-21 03:43 | 39.31606 | 38.10582 | 35284 ft | 519 kts | 115° |
| 2026-02-21 03:44 | 39.29033 | 38.19293 | 35263 ft | 520 kts | 115° |
| 2026-02-21 03:44 | 39.26462 | 38.27977 | 35325 ft | 518 kts | 115° |
| 2026-02-21 03:45 | 39.23904 | 38.36582 | 35337 ft | 519 kts | 115° |
| 2026-02-21 03:45 | 39.21308 | 38.45288 | 35276 ft | 520 kts | 115° |
| 2026-02-21 03:46 | 39.18707 | 38.53987 | 35336 ft | 521 kts | 115° |
| 2026-02-21 03:46 | 39.16115 | 38.62622 | 35293 ft | 519 kts | 115° |
| 2026-02-21 03:47 | 39.13511 | 38.71272 | 35288 ft | 519 kts | 115° |
| 2026-02-21 03:47 | 39.10890 | 38.79950 | 35286 ft | 519 kts | 115° |
| 2026-02-21 03:48 | 39.08262 | 38.88624 | 35287 ft | 521 kts | 115° |
| 2026-02-21 03:48 | 39.05648 | 38.97225 | 35269 ft | 519 kts | 115° |
| 2026-02-21 03:49 | 39.03007 | 39.05886 | 35246 ft | 518 kts | 115° |
| 2026-02-21 03:49 | 39.00383 | 39.14467 | 35296 ft | 520 kts | 115° |
| 2026-02-21 03:50 | 38.97733 | 39.23107 | 35268 ft | 519 kts | 115° |
| 2026-02-21 03:50 | 38.95149 | 39.31744 | 35270 ft | 522 kts | 110° |
| 2026-02-21 03:51 | 38.93007 | 39.40646 | 35258 ft | 523 kts | 110° |
| 2026-02-21 03:51 | 38.90852 | 39.49483 | 35251 ft | 522 kts | 110° |
| 2026-02-21 03:52 | 38.88668 | 39.58378 | 35271 ft | 523 kts | 110° |
| 2026-02-21 03:52 | 38.86455 | 39.67349 | 35279 ft | 524 kts | 111° |
| 2026-02-21 03:53 | 38.84270 | 39.76174 | 35225 ft | 523 kts | 111° |
| 2026-02-21 03:53 | 38.82069 | 39.85031 | 35280 ft | 523 kts | 111° |
| 2026-02-21 03:54 | 38.79859 | 39.93886 | 35296 ft | 524 kts | 111° |
| 2026-02-21 03:54 | 38.77179 | 40.02510 | 35252 ft | 521 kts | 116° |
| 2026-02-21 03:55 | 38.74352 | 40.11058 | 35277 ft | 522 kts | 116° |
| 2026-02-21 03:55 | 38.71535 | 40.19537 | 35260 ft | 520 kts | 116° |
| 2026-02-21 03:56 | 38.68698 | 40.28045 | 35266 ft | 521 kts | 116° |
| 2026-02-21 03:56 | 38.65865 | 40.36517 | 35344 ft | 520 kts | 116° |
| 2026-02-21 03:57 | 38.63009 | 40.45032 | 35331 ft | 521 kts | 116° |
| 2026-02-21 03:57 | 38.60163 | 40.53492 | 35291 ft | 520 kts | 116° |
| 2026-02-21 03:58 | 38.57285 | 40.62020 | 35321 ft | 522 kts | 116° |
| 2026-02-21 03:58 | 38.54404 | 40.70534 | 35286 ft | 520 kts | 117° |
| 2026-02-21 03:59 | 38.51541 | 40.78967 | 35322 ft | 522 kts | 117° |
| 2026-02-21 03:59 | 38.48655 | 40.87447 | 35291 ft | 522 kts | 117° |
| 2026-02-21 04:00 | 38.45754 | 40.95948 | 35296 ft | 521 kts | 117° |
| 2026-02-21 04:00 | 38.42857 | 41.04407 | 35264 ft | 522 kts | 117° |
| 2026-02-21 04:01 | 38.39948 | 41.12879 | 35325 ft | 524 kts | 117° |
| 2026-02-21 04:01 | 38.37046 | 41.21305 | 35314 ft | 520 kts | 117° |
| 2026-02-21 04:02 | 38.34145 | 41.29704 | 35253 ft | 522 kts | 117° |
| 2026-02-21 04:02 | 38.31218 | 41.38154 | 35310 ft | 525 kts | 117° |
| 2026-02-21 04:03 | 38.28268 | 41.46646 | 35308 ft | 522 kts | 117° |
| 2026-02-21 04:03 | 38.25346 | 41.55037 | 35325 ft | 522 kts | 117° |
| 2026-02-21 04:04 | 38.22387 | 41.63509 | 35324 ft | 524 kts | 117° |
| 2026-02-21 04:04 | 38.19437 | 41.71928 | 35310 ft | 521 kts | 118° |
| 2026-02-21 04:05 | 38.16498 | 41.80294 | 35312 ft | 523 kts | 118° |
| 2026-02-21 04:05 | 38.13515 | 41.88755 | 35311 ft | 523 kts | 118° |
| 2026-02-21 04:06 | 38.10571 | 41.97090 | 35304 ft | 522 kts | 118° |
| 2026-02-21 04:06 | 38.07580 | 42.05529 | 35302 ft | 525 kts | 117° |
| 2026-02-21 04:07 | 38.04604 | 42.13907 | 35360 ft | 524 kts | 118° |
| 2026-02-21 04:07 | 38.01603 | 42.22330 | 35315 ft | 522 kts | 118° |
| 2026-02-21 04:08 | 37.98626 | 42.30657 | 35330 ft | 522 kts | 118° |